sensor_id;sensor_type;location;lat;lon;timestamp;pressure;altitude;pressure_sealevel;temperature;humidity
51239;BME280;38154;47.548;18.828;2024-03-23T00:52:36;74918.00;;;-145.55;83.99
51239;BME280;38154;47.548;18.828;2024-03-23T00:55:02;74912.03;;;-145.55;84.12
51239;BME280;38154;47.548;18.828;2024-03-23T00:57:27;74892.13;;;-145.55;83.96
51239;BME280;38154;47.548;18.828;2024-03-23T00:59:53;74864.25;;;-145.55;82.97
51239;BME280;38154;47.548;18.828;2024-03-23T01:02:18;74828.44;;;-145.55;81.83
51239;BME280;38154;47.548;18.828;2024-03-23T01:04:44;74820.50;;;-145.55;81.18
51239;BME280;38154;47.548;18.828;2024-03-23T01:07:10;74804.56;;;-145.55;80.71
51239;BME280;38154;47.548;18.828;2024-03-23T01:09:35;74792.63;;;-145.55;80.45
51239;BME280;38154;47.548;18.828;2024-03-23T01:12:04;74778.69;;;-145.55;80.06
51239;BME280;38154;47.548;18.828;2024-03-23T01:14:30;74750.84;;;-145.55;79.19
51239;BME280;38154;47.548;18.828;2024-03-23T01:16:55;74750.84;;;-145.55;79.05
51239;BME280;38154;47.548;18.828;2024-03-23T01:19:21;74732.94;;;-145.55;78.63
51239;BME280;38154;47.548;18.828;2024-03-23T01:21:47;74723.00;;;-145.55;78.14
51239;BME280;38154;47.548;18.828;2024-03-23T01:24:14;74724.97;;;-145.55;78.19
51239;BME280;38154;47.548;18.828;2024-03-23T01:26:40;74752.84;;;-145.55;78.69
51239;BME280;38154;47.548;18.828;2024-03-23T01:29:05;74770.75;;;-145.55;79.60
51239;BME280;38154;47.548;18.828;2024-03-23T01:31:31;74772.72;;;-145.55;80.38
51239;BME280;38154;47.548;18.828;2024-03-23T01:33:57;74758.81;;;-145.55;80.05
51239;BME280;38154;47.548;18.828;2024-03-23T01:36:24;74756.81;;;-145.55;79.98
51239;BME280;38154;47.548;18.828;2024-03-23T01:38:50;74744.88;;;-145.55;79.64
51239;BME280;38154;47.548;18.828;2024-03-23T01:41:17;74742.88;;;-145.55;79.62
51239;BME280;38154;47.548;18.828;2024-03-23T01:43:43;74740.91;;;-145.55;79.78
51239;BME280;38154;47.548;18.828;2024-03-23T01:46:08;74734.94;;;-145.55;79.69
51239;BME280;38154;47.548;18.828;2024-03-23T01:48:34;74736.91;;;-145.55;79.72
51239;BME280;38154;47.548;18.828;2024-03-23T01:51:00;74736.91;;;-145.55;79.72
51239;BME280;38154;47.548;18.828;2024-03-23T01:53:26;74724.97;;;-145.55;79.62
51239;BME280;38154;47.548;18.828;2024-03-23T01:55:51;74723.00;;;-145.55;79.58
51239;BME280;38154;47.548;18.828;2024-03-23T01:58:17;74705.09;;;-145.55;79.30
51239;BME280;38154;47.548;18.828;2024-03-23T02:00:43;74709.06;;;-145.55;79.20
51239;BME280;38154;47.548;18.828;2024-03-23T02:03:30;74693.16;;;-145.55;78.67
51239;BME280;38154;47.548;18.828;2024-03-23T02:05:54;74701.09;;;-145.55;78.74
51239;BME280;38154;47.548;18.828;2024-03-23T02:08:21;74701.09;;;-145.55;78.96
51239;BME280;38154;47.548;18.828;2024-03-23T02:10:48;74699.13;;;-145.55;78.68
51239;BME280;38154;47.548;18.828;2024-03-23T02:13:15;74719.00;;;-145.55;79.47
51239;BME280;38154;47.548;18.828;2024-03-23T02:15:41;74721.00;;;-145.55;79.92
51239;BME280;38154;47.548;18.828;2024-03-23T02:18:07;74711.06;;;-145.55;79.42
51239;BME280;38154;47.548;18.828;2024-03-23T02:20:33;74699.13;;;-145.55;79.03
51239;BME280;38154;47.548;18.828;2024-03-23T02:22:58;74675.25;;;-145.55;78.53
51239;BME280;38154;47.548;18.828;2024-03-23T02:25:24;74681.19;;;-145.55;78.52
51239;BME280;38154;47.548;18.828;2024-03-23T02:27:50;74687.16;;;-145.55;78.67
51239;BME280;38154;47.548;18.828;2024-03-23T02:30:15;74693.16;;;-145.55;79.00
51239;BME280;38154;47.548;18.828;2024-03-23T02:32:41;74699.13;;;-145.55;79.18
51239;BME280;38154;47.548;18.828;2024-03-23T02:35:07;74705.09;;;-145.55;79.47
51239;BME280;38154;47.548;18.828;2024-03-23T02:37:32;74703.09;;;-145.55;79.53
51239;BME280;38154;47.548;18.828;2024-03-23T02:39:58;74703.09;;;-145.55;79.58
51239;BME280;38154;47.548;18.828;2024-03-23T02:42:24;74695.13;;;-145.55;79.64
51239;BME280;38154;47.548;18.828;2024-03-23T02:44:49;74701.09;;;-145.55;79.69
51239;BME280;38154;47.548;18.828;2024-03-23T02:47:15;74715.03;;;-145.55;80.20
51239;BME280;38154;47.548;18.828;2024-03-23T02:49:41;74713.03;;;-145.55;80.21
51239;BME280;38154;47.548;18.828;2024-03-23T02:52:06;74717.03;;;-145.55;80.59
51239;BME280;38154;47.548;18.828;2024-03-23T02:54:32;74724.97;;;-145.55;80.81
51239;BME280;38154;47.548;18.828;2024-03-23T02:56:57;74724.97;;;-145.55;80.95
51239;BME280;38154;47.548;18.828;2024-03-23T02:59:23;74717.03;;;-145.55;80.59
51239;BME280;38154;47.548;18.828;2024-03-23T03:01:49;74726.97;;;-145.55;81.03
51239;BME280;38154;47.548;18.828;2024-03-23T03:04:14;74730.94;;;-145.55;81.40
51239;BME280;38154;47.548;18.828;2024-03-23T03:06:40;74740.91;;;-145.55;81.83
51239;BME280;38154;47.548;18.828;2024-03-23T03:09:06;74738.91;;;-145.55;81.94
51239;BME280;38154;47.548;18.828;2024-03-23T03:11:32;74740.91;;;-145.55;82.00
51239;BME280;38154;47.548;18.828;2024-03-23T03:13:57;74732.94;;;-145.55;82.13
51239;BME280;38154;47.548;18.828;2024-03-23T03:16:26;74734.94;;;-145.55;82.25
51239;BME280;38154;47.548;18.828;2024-03-23T03:18:51;74732.94;;;-145.55;82.15
51239;BME280;38154;47.548;18.828;2024-03-23T03:21:18;74732.94;;;-145.55;82.54
51239;BME280;38154;47.548;18.828;2024-03-23T03:23:44;74726.97;;;-145.55;82.55
51239;BME280;38154;47.548;18.828;2024-03-23T03:26:10;74715.03;;;-145.55;82.44
51239;BME280;38154;47.548;18.828;2024-03-23T03:28:36;74715.03;;;-145.55;81.89
51239;BME280;38154;47.548;18.828;2024-03-23T03:31:01;74713.03;;;-145.55;82.14
51239;BME280;38154;47.548;18.828;2024-03-23T03:33:27;74695.13;;;-145.55;81.80
51239;BME280;38154;47.548;18.828;2024-03-23T03:35:53;74691.16;;;-145.55;81.84
51239;BME280;38154;47.548;18.828;2024-03-23T03:38:19;74671.25;;;-145.55;81.10
51239;BME280;38154;47.548;18.828;2024-03-23T03:40:45;74665.28;;;-145.55;80.99
51239;BME280;38154;47.548;18.828;2024-03-23T03:43:10;74669.25;;;-145.55;80.99
51239;BME280;38154;47.548;18.828;2024-03-23T03:45:36;74671.25;;;-145.55;81.22
51239;BME280;38154;47.548;18.828;2024-03-23T03:48:02;74667.28;;;-145.55;81.31
51239;BME280;38154;47.548;18.828;2024-03-23T03:50:28;74659.31;;;-145.55;80.95
51239;BME280;38154;47.548;18.828;2024-03-23T03:52:53;74647.38;;;-145.55;80.91
51239;BME280;38154;47.548;18.828;2024-03-23T03:55:19;74653.34;;;-145.55;81.07
51239;BME280;38154;47.548;18.828;2024-03-23T03:57:45;74655.34;;;-145.55;80.98
51239;BME280;38154;47.548;18.828;2024-03-23T04:00:10;74647.38;;;-145.55;80.94
51239;BME280;38154;47.548;18.828;2024-03-23T04:02:37;74645.38;;;-145.55;80.97
51239;BME280;38154;47.548;18.828;2024-03-23T04:05:03;74633.44;;;-145.55;80.55
51239;BME280;38154;47.548;18.828;2024-03-23T04:07:28;74631.47;;;-145.55;80.64
51239;BME280;38154;47.548;18.828;2024-03-23T04:09:54;74627.47;;;-145.55;80.21
51239;BME280;38154;47.548;18.828;2024-03-23T04:12:20;74615.53;;;-145.55;79.34
51239;BME280;38154;47.548;18.828;2024-03-23T04:14:45;74613.56;;;-145.55;79.73
51239;BME280;38154;47.548;18.828;2024-03-23T04:17:11;74619.53;;;-145.55;78.99
51239;BME280;38154;47.548;18.828;2024-03-23T04:19:37;74625.50;;;-145.55;79.49
51239;BME280;38154;47.548;18.828;2024-03-23T04:22:03;74635.44;;;-145.55;79.37
51239;BME280;38154;47.548;18.828;2024-03-23T04:24:29;74639.41;;;-145.55;79.67
51239;BME280;38154;47.548;18.828;2024-03-23T04:26:54;74641.41;;;-145.55;79.86
51239;BME280;38154;47.548;18.828;2024-03-23T04:29:20;74629.47;;;-145.55;80.05
51239;BME280;38154;47.548;18.828;2024-03-23T04:31:46;74643.41;;;-145.55;80.49
51239;BME280;38154;47.548;18.828;2024-03-23T04:34:12;74645.38;;;-145.55;80.75
51239;BME280;38154;47.548;18.828;2024-03-23T04:36:38;74637.44;;;-145.55;80.38
51239;BME280;38154;47.548;18.828;2024-03-23T04:39:05;74625.50;;;-145.55;80.15
51239;BME280;38154;47.548;18.828;2024-03-23T04:41:34;74615.53;;;-145.55;79.70
51239;BME280;38154;47.548;18.828;2024-03-23T04:44:00;74619.53;;;-145.55;79.92
51239;BME280;38154;47.548;18.828;2024-03-23T04:46:26;74603.59;;;-145.55;79.69
51239;BME280;38154;47.548;18.828;2024-03-23T04:48:51;74611.56;;;-145.55;79.74
51239;BME280;38154;47.548;18.828;2024-03-23T04:51:23;74613.56;;;-145.55;79.86
51239;BME280;38154;47.548;18.828;2024-03-23T04:53:49;74605.59;;;-145.55;79.76
51239;BME280;38154;47.548;18.828;2024-03-23T04:56:15;74603.59;;;-145.55;79.67
51239;BME280;38154;47.548;18.828;2024-03-23T04:58:42;74607.59;;;-145.55;79.81
51239;BME280;38154;47.548;18.828;2024-03-23T05:01:08;74593.66;;;-145.55;79.57
51239;BME280;38154;47.548;18.828;2024-03-23T05:03:34;74585.69;;;-145.55;79.26
51239;BME280;38154;47.548;18.828;2024-03-23T05:05:59;74585.69;;;-145.55;79.18
51239;BME280;38154;47.548;18.828;2024-03-23T05:08:25;74585.69;;;-145.55;79.50
51239;BME280;38154;47.548;18.828;2024-03-23T05:10:51;74579.72;;;-145.55;79.33
51239;BME280;38154;47.548;18.828;2024-03-23T05:13:17;74579.72;;;-145.55;79.35
51239;BME280;38154;47.548;18.828;2024-03-23T05:15:43;74575.75;;;-145.55;79.10
51239;BME280;38154;47.548;18.828;2024-03-23T05:18:09;74579.72;;;-145.55;79.69
51239;BME280;38154;47.548;18.828;2024-03-23T05:20:35;74583.72;;;-145.55;79.66
51239;BME280;38154;47.548;18.828;2024-03-23T05:23:01;74581.72;;;-145.55;79.68
51239;BME280;38154;47.548;18.828;2024-03-23T05:25:27;74569.78;;;-145.55;79.49
51239;BME280;38154;47.548;18.828;2024-03-23T05:27:52;74555.84;;;-145.55;79.47
51239;BME280;38154;47.548;18.828;2024-03-23T05:30:18;74549.88;;;-145.55;79.50
51239;BME280;38154;47.548;18.828;2024-03-23T05:32:44;74535.97;;;-145.55;78.89
51239;BME280;38154;47.548;18.828;2024-03-23T05:35:10;74514.06;;;-145.55;78.29
51239;BME280;38154;47.548;18.828;2024-03-23T05:37:36;74492.19;;;-145.55;77.49
51239;BME280;38154;47.548;18.828;2024-03-23T05:40:02;74484.22;;;-145.55;77.24
51239;BME280;38154;47.548;18.828;2024-03-23T05:42:29;74464.34;;;-145.55;76.50
51239;BME280;38154;47.548;18.828;2024-03-23T05:44:54;74448.41;;;-145.55;75.70
51239;BME280;38154;47.548;18.828;2024-03-23T05:47:20;74436.47;;;-145.55;75.02
51239;BME280;38154;47.548;18.828;2024-03-23T05:49:46;74424.53;;;-145.55;74.54
51239;BME280;38154;47.548;18.828;2024-03-23T05:52:12;74392.72;;;-145.55;73.67
51239;BME280;38154;47.548;18.828;2024-03-23T05:54:37;74372.81;;;-145.55;73.06
51239;BME280;38154;47.548;18.828;2024-03-23T05:57:03;74358.88;;;-145.55;72.79
51239;BME280;38154;47.548;18.828;2024-03-23T05:59:29;74354.91;;;-145.55;72.71
51239;BME280;38154;47.548;18.828;2024-03-23T06:01:55;74358.88;;;-145.55;72.73
51239;BME280;38154;47.548;18.828;2024-03-23T06:04:20;74362.88;;;-145.55;73.19
51239;BME280;38154;47.548;18.828;2024-03-23T06:06:49;74366.84;;;-145.55;73.34
51239;BME280;38154;47.548;18.828;2024-03-23T06:09:14;74366.84;;;-145.55;74.06
51239;BME280;38154;47.548;18.828;2024-03-23T06:11:40;74358.88;;;-145.55;74.06
51239;BME280;38154;47.548;18.828;2024-03-23T06:14:06;74350.94;;;-145.55;74.28
51239;BME280;38154;47.548;18.828;2024-03-23T06:16:31;74366.84;;;-145.55;74.34
51239;BME280;38154;47.548;18.828;2024-03-23T06:18:57;74346.94;;;-145.55;74.38
51239;BME280;38154;47.548;18.828;2024-03-23T06:21:24;74327.06;;;-145.55;73.70
51239;BME280;38154;47.548;18.828;2024-03-23T06:23:53;74319.09;;;-145.55;73.50
51239;BME280;38154;47.548;18.828;2024-03-23T06:26:19;74305.16;;;-145.55;72.99
51239;BME280;38154;47.548;18.828;2024-03-23T06:28:45;74293.22;;;-145.55;73.09
51239;BME280;38154;47.548;18.828;2024-03-23T06:31:11;74287.25;;;-145.55;73.19
51239;BME280;38154;47.548;18.828;2024-03-23T06:33:36;74263.38;;;-145.55;72.47
51239;BME280;38154;47.548;18.828;2024-03-23T06:36:02;74225.59;;;-145.55;71.82
51239;BME280;38154;47.548;18.828;2024-03-23T06:38:28;74197.72;;;-145.55;70.01
51239;BME280;38154;47.548;18.828;2024-03-23T06:40:54;74165.91;;;-145.55;69.22
51239;BME280;38154;47.548;18.828;2024-03-23T06:43:19;74142.03;;;-145.55;68.54
51239;BME280;38154;47.548;18.828;2024-03-23T06:45:52;74114.19;;;-145.55;67.35
51239;BME280;38154;47.548;18.828;2024-03-23T06:48:17;74098.25;;;-145.55;67.23
51239;BME280;38154;47.548;18.828;2024-03-23T06:50:44;74082.34;;;-145.55;65.92
51239;BME280;38154;47.548;18.828;2024-03-23T06:53:09;74056.47;;;-145.55;64.37
51239;BME280;38154;47.548;18.828;2024-03-23T06:55:35;74008.75;;;-145.55;63.27
51239;BME280;38154;47.548;18.828;2024-03-23T06:58:00;73937.13;;;-145.55;61.56
51239;BME280;38154;47.548;18.828;2024-03-23T07:00:26;73891.38;;;-145.55;59.76
51239;BME280;38154;47.548;18.828;2024-03-23T07:02:52;73813.78;;;-145.55;57.54
51239;BME280;38154;47.548;18.828;2024-03-23T07:05:17;73754.09;;;-145.55;55.99
51239;BME280;38154;47.548;18.828;2024-03-23T07:07:43;73831.69;;;-145.55;56.48
51239;BME280;38154;47.548;18.828;2024-03-23T07:10:09;73863.50;;;-145.55;57.25
51239;BME280;38154;47.548;18.828;2024-03-23T07:12:35;73915.25;;;-145.55;58.38
51239;BME280;38154;47.548;18.828;2024-03-23T07:15:00;73968.94;;;-145.55;60.27
51239;BME280;38154;47.548;18.828;2024-03-23T07:17:26;73972.94;;;-145.55;60.56
51239;BME280;38154;47.548;18.828;2024-03-23T07:19:51;73992.81;;;-145.55;61.36
51239;BME280;38154;47.548;18.828;2024-03-23T07:22:17;74016.69;;;-145.55;62.24
51239;BME280;38154;47.548;18.828;2024-03-23T07:24:43;74012.72;;;-145.55;62.23
51239;BME280;38154;47.548;18.828;2024-03-23T07:27:09;74030.63;;;-145.55;62.92
51239;BME280;38154;47.548;18.828;2024-03-23T07:29:38;74024.66;;;-145.55;63.59
51239;BME280;38154;47.548;18.828;2024-03-23T07:32:03;74022.66;;;-145.55;63.54
51239;BME280;38154;47.548;18.828;2024-03-23T07:34:29;74028.63;;;-145.55;64.43
51239;BME280;38154;47.548;18.828;2024-03-23T07:36:55;74012.72;;;-145.55;64.32
51239;BME280;38154;47.548;18.828;2024-03-23T07:39:20;73957.00;;;-145.55;62.58
51239;BME280;38154;47.548;18.828;2024-03-23T07:41:46;73875.44;;;-145.55;60.17
51239;BME280;38154;47.548;18.828;2024-03-23T07:44:12;73821.75;;;-145.55;58.66
51239;BME280;38154;47.548;18.828;2024-03-23T07:46:37;73809.81;;;-145.55;57.52
51239;BME280;38154;47.548;18.828;2024-03-23T07:49:06;73867.50;;;-145.55;58.82
51239;BME280;38154;47.548;18.828;2024-03-23T07:51:32;73895.34;;;-145.55;60.24
51239;BME280;38154;47.548;18.828;2024-03-23T07:53:58;73893.34;;;-145.55;60.64
51239;BME280;38154;47.548;18.828;2024-03-23T07:56:23;73893.34;;;-145.55;60.36
51239;BME280;38154;47.548;18.828;2024-03-23T07:58:49;73899.31;;;-145.55;60.01
51239;BME280;38154;47.548;18.828;2024-03-23T08:01:16;73883.41;;;-145.55;59.70
51239;BME280;38154;47.548;18.828;2024-03-23T08:03:42;73891.38;;;-145.55;60.19
51239;BME280;38154;47.548;18.828;2024-03-23T08:06:15;73891.38;;;-145.55;59.81
51239;BME280;38154;47.548;18.828;2024-03-23T08:08:42;73865.50;;;-145.55;60.10
51239;BME280;38154;47.548;18.828;2024-03-23T08:11:08;73841.63;;;-145.55;59.53
51239;BME280;38154;47.548;18.828;2024-03-23T08:13:34;73819.75;;;-145.55;58.32
51239;BME280;38154;47.548;18.828;2024-03-23T08:16:02;73783.94;;;-145.55;57.73
51239;BME280;38154;47.548;18.828;2024-03-23T08:18:28;73774.00;;;-145.55;57.79
51239;BME280;38154;47.548;18.828;2024-03-23T08:23:23;73730.22;;;-145.55;55.85
51239;BME280;38154;47.548;18.828;2024-03-23T08:25:49;73646.69;;;-145.55;54.47
51239;BME280;38154;47.548;18.828;2024-03-23T08:28:14;73559.16;;;-145.55;52.45
51239;BME280;38154;47.548;18.828;2024-03-23T08:30:40;73519.38;;;-145.55;51.81
51239;BME280;38154;47.548;18.828;2024-03-23T08:33:06;73511.41;;;-145.55;50.42
51239;BME280;38154;47.548;18.828;2024-03-23T08:35:31;73497.50;;;-145.55;50.54
51239;BME280;38154;47.548;18.828;2024-03-23T08:37:57;73441.81;;;-145.55;50.07
51239;BME280;38154;47.548;18.828;2024-03-23T08:40:23;73372.19;;;-145.55;48.46
51239;BME280;38154;47.548;18.828;2024-03-23T08:42:48;73149.41;;;-145.55;45.04
51239;BME280;38154;47.548;18.828;2024-03-23T08:45:14;72855.06;;;-145.55;40.54
51239;BME280;38154;47.548;18.828;2024-03-23T08:47:39;72847.09;;;-145.55;39.43
51239;BME280;38154;47.548;18.828;2024-03-23T08:50:05;72807.31;;;-145.55;38.74
51239;BME280;38154;47.548;18.828;2024-03-23T08:52:31;72787.44;;;-145.55;38.33
51239;BME280;38154;47.548;18.828;2024-03-23T08:54:57;72644.25;;;-145.55;36.68
51239;BME280;38154;47.548;18.828;2024-03-23T08:57:23;72513.00;;;-145.55;35.52
51239;BME280;38154;47.548;18.828;2024-03-23T08:59:49;72493.13;;;-145.55;35.36
51239;BME280;38154;47.548;18.828;2024-03-23T09:02:15;72461.28;;;-145.55;34.12
51239;BME280;38154;47.548;18.828;2024-03-23T09:04:40;72461.28;;;-145.55;34.44
51239;BME280;38154;47.548;18.828;2024-03-23T09:07:06;72493.13;;;-145.55;34.49
51239;BME280;38154;47.548;18.828;2024-03-23T09:09:32;72439.41;;;-145.55;33.96
51239;BME280;38154;47.548;18.828;2024-03-23T09:11:57;72415.56;;;-145.55;33.75
51239;BME280;38154;47.548;18.828;2024-03-23T09:14:23;72513.00;;;-145.55;34.44
51239;BME280;38154;47.548;18.828;2024-03-23T09:16:51;72461.28;;;-145.55;33.83
51239;BME280;38154;47.548;18.828;2024-03-23T09:19:17;72377.78;;;-145.55;32.76
51239;BME280;38154;47.548;18.828;2024-03-23T09:21:43;72405.63;;;-145.55;33.04
51239;BME280;38154;47.548;18.828;2024-03-23T09:24:08;72449.38;;;-145.55;33.11
51239;BME280;38154;47.548;18.828;2024-03-23T09:26:34;72656.19;;;-145.55;34.67
51239;BME280;38154;47.548;18.828;2024-03-23T09:29:00;72859.03;;;-145.55;36.36
51239;BME280;38154;47.548;18.828;2024-03-23T09:31:25;72815.28;;;-145.55;36.32
51239;BME280;38154;47.548;18.828;2024-03-23T09:33:51;72759.59;;;-145.55;35.58
51239;BME280;38154;47.548;18.828;2024-03-23T09:36:17;72767.56;;;-145.55;35.92
51239;BME280;38154;47.548;18.828;2024-03-23T09:38:42;72805.34;;;-145.55;36.48
51239;BME280;38154;47.548;18.828;2024-03-23T09:41:08;72851.09;;;-145.55;36.48
51239;BME280;38154;47.548;18.828;2024-03-23T09:43:34;72954.50;;;-145.55;37.35
51239;BME280;38154;47.548;18.828;2024-03-23T09:46:00;72966.44;;;-145.55;38.12
51239;BME280;38154;47.548;18.828;2024-03-23T09:48:26;72815.28;;;-145.55;37.27
51239;BME280;38154;47.548;18.828;2024-03-23T09:50:52;72721.81;;;-145.55;36.09
51239;BME280;38154;47.548;18.828;2024-03-23T09:53:18;72709.88;;;-145.55;35.84
51239;BME280;38154;47.548;18.828;2024-03-23T09:55:44;72705.91;;;-145.55;35.64
51239;BME280;38154;47.548;18.828;2024-03-23T09:58:13;72731.75;;;-145.55;35.97
51239;BME280;38154;47.548;18.828;2024-03-23T10:00:39;72715.84;;;-145.55;36.33
51239;BME280;38154;47.548;18.828;2024-03-23T10:03:05;72753.63;;;-145.55;36.60
51239;BME280;38154;47.548;18.828;2024-03-23T10:05:32;72717.84;;;-145.55;36.60
51239;BME280;38154;47.548;18.828;2024-03-23T10:10:37;72682.03;;;-145.55;36.35
51239;BME280;38154;47.548;18.828;2024-03-23T10:13:03;72715.84;;;-145.55;36.80
51239;BME280;38154;47.548;18.828;2024-03-23T10:15:28;72755.63;;;-145.55;37.27
51239;BME280;38154;47.548;18.828;2024-03-23T10:17:54;72831.19;;;-145.55;38.44
51239;BME280;38154;47.548;18.828;2024-03-23T10:20:20;72916.72;;;-145.55;38.64
51239;BME280;38154;47.548;18.828;2024-03-23T10:22:49;72932.63;;;-145.55;39.02
51239;BME280;38154;47.548;18.828;2024-03-23T10:25:15;72888.88;;;-145.55;39.13
51239;BME280;38154;47.548;18.828;2024-03-23T10:27:41;72878.94;;;-145.55;38.95
51239;BME280;38154;47.548;18.828;2024-03-23T10:30:09;72795.41;;;-145.55;38.46
51239;BME280;38154;47.548;18.828;2024-03-23T10:32:35;72817.28;;;-145.55;38.14
51239;BME280;38154;47.548;18.828;2024-03-23T10:35:16;72801.38;;;-145.55;38.20
51239;BME280;38154;47.548;18.828;2024-03-23T10:37:44;72819.25;;;-145.55;38.02
51239;BME280;38154;47.548;18.828;2024-03-23T10:40:10;72829.19;;;-145.55;38.25
51239;BME280;38154;47.548;18.828;2024-03-23T10:42:37;72791.41;;;-145.55;38.18
51239;BME280;38154;47.548;18.828;2024-03-23T10:45:06;72727.78;;;-145.55;37.95
51239;BME280;38154;47.548;18.828;2024-03-23T10:47:33;72735.72;;;-145.55;38.08
51239;BME280;38154;47.548;18.828;2024-03-23T10:49:59;72636.28;;;-145.55;37.15
51239;BME280;38154;47.548;18.828;2024-03-23T10:52:25;72646.25;;;-145.55;36.11
51239;BME280;38154;47.548;18.828;2024-03-23T10:54:51;72634.31;;;-145.55;35.95
51239;BME280;38154;47.548;18.828;2024-03-23T10:57:17;72608.44;;;-145.55;34.82
51239;BME280;38154;47.548;18.828;2024-03-23T10:59:44;72624.38;;;-145.55;34.89
51239;BME280;38154;47.548;18.828;2024-03-23T11:02:18;72562.72;;;-145.55;33.84
51239;BME280;38154;47.548;18.828;2024-03-23T11:04:44;72515.00;;;-145.55;34.26
51239;BME280;38154;47.548;18.828;2024-03-23T11:07:28;72564.69;;;-145.55;34.46
51239;BME280;38154;47.548;18.828;2024-03-23T11:09:53;72610.44;;;-145.55;33.70
51239;BME280;38154;47.548;18.828;2024-03-23T11:14:45;72644.25;;;-145.55;32.79
51239;BME280;38154;47.548;18.828;2024-03-23T11:17:11;72636.28;;;-145.55;33.26
51239;BME280;38154;47.548;18.828;2024-03-23T11:19:37;72602.50;;;-145.55;33.04
51239;BME280;38154;47.548;18.828;2024-03-23T11:22:03;72604.47;;;-145.55;33.94
51239;BME280;38154;47.548;18.828;2024-03-23T11:24:30;72594.53;;;-145.55;33.08
51239;BME280;38154;47.548;18.828;2024-03-23T11:26:56;72608.44;;;-145.55;33.26
51239;BME280;38154;47.548;18.828;2024-03-23T11:29:25;72624.38;;;-145.55;33.24
51239;BME280;38154;47.548;18.828;2024-03-23T11:31:52;72640.28;;;-145.55;33.86
51239;BME280;38154;47.548;18.828;2024-03-23T11:34:18;72588.56;;;-145.55;33.86
51239;BME280;38154;47.548;18.828;2024-03-23T11:36:44;72596.53;;;-145.55;33.88
51239;BME280;38154;47.548;18.828;2024-03-23T11:39:14;72548.78;;;-145.55;33.41
51239;BME280;38154;47.548;18.828;2024-03-23T11:41:52;72596.53;;;-145.55;34.33
51239;BME280;38154;47.548;18.828;2024-03-23T11:46:44;72688.00;;;-145.55;35.18
51239;BME280;38154;47.548;18.828;2024-03-23T11:49:28;72650.22;;;-145.55;35.40
51239;BME280;38154;47.548;18.828;2024-03-23T11:51:54;72642.25;;;-145.55;34.96
51239;BME280;38154;47.548;18.828;2024-03-23T11:54:23;72620.38;;;-145.55;35.00
51239;BME280;38154;47.548;18.828;2024-03-23T12:01:59;72809.31;;;-145.55;35.76
51239;BME280;38154;47.548;18.828;2024-03-23T12:04:28;72797.38;;;-145.55;35.02
51239;BME280;38154;47.548;18.828;2024-03-23T12:09:38;72803.34;;;-145.55;35.58
51239;BME280;38154;47.548;18.828;2024-03-23T12:14:32;72823.25;;;-145.55;36.24
51239;BME280;38154;47.548;18.828;2024-03-23T12:17:07;72827.22;;;-145.55;35.94
51239;BME280;38154;47.548;18.828;2024-03-23T12:19:32;72831.19;;;-145.55;36.02
51239;BME280;38154;47.548;18.828;2024-03-23T12:21:58;72841.13;;;-145.55;36.98
51239;BME280;38154;47.548;18.828;2024-03-23T12:24:24;72821.25;;;-145.55;36.55
51239;BME280;38154;47.548;18.828;2024-03-23T12:26:50;72835.16;;;-145.55;36.96
51239;BME280;38154;47.548;18.828;2024-03-23T12:29:15;72807.31;;;-145.55;36.83
51239;BME280;38154;47.548;18.828;2024-03-23T12:31:41;72827.22;;;-145.55;37.32
51239;BME280;38154;47.548;18.828;2024-03-23T12:34:07;72835.16;;;-145.55;37.32
51239;BME280;38154;47.548;18.828;2024-03-23T12:36:32;72888.88;;;-145.55;37.42
51239;BME280;38154;47.548;18.828;2024-03-23T12:38:58;72914.72;;;-145.55;37.93
51239;BME280;38154;47.548;18.828;2024-03-23T12:41:24;72922.69;;;-145.55;38.31
51239;BME280;38154;47.548;18.828;2024-03-23T12:43:50;72942.56;;;-145.55;38.29
51239;BME280;38154;47.548;18.828;2024-03-23T12:46:15;72960.47;;;-145.55;38.62
51239;BME280;38154;47.548;18.828;2024-03-23T12:48:41;72978.38;;;-145.55;38.48
51239;BME280;38154;47.548;18.828;2024-03-23T12:51:09;73000.25;;;-145.55;38.20
51239;BME280;38154;47.548;18.828;2024-03-23T12:53:35;73014.16;;;-145.55;38.86
51239;BME280;38154;47.548;18.828;2024-03-23T12:56:00;73036.03;;;-145.55;38.83
51239;BME280;38154;47.548;18.828;2024-03-23T12:58:27;73042.00;;;-145.55;39.41
51239;BME280;38154;47.548;18.828;2024-03-23T13:00:52;73046.00;;;-145.55;39.22
51239;BME280;38154;47.548;18.828;2024-03-23T13:03:18;73051.97;;;-145.55;39.62
51239;BME280;38154;47.548;18.828;2024-03-23T13:05:46;73047.97;;;-145.55;39.36
51239;BME280;38154;47.548;18.828;2024-03-23T13:08:16;73046.00;;;-145.55;39.35
51239;BME280;38154;47.548;18.828;2024-03-23T13:10:42;73057.94;;;-145.55;39.45
51239;BME280;38154;47.548;18.828;2024-03-23T13:13:08;73049.97;;;-145.55;39.48
51239;BME280;38154;47.548;18.828;2024-03-23T13:15:34;73044.00;;;-145.55;39.04
51239;BME280;38154;47.548;18.828;2024-03-23T13:17:59;73036.03;;;-145.55;39.76
51239;BME280;38154;47.548;18.828;2024-03-23T13:20:25;73034.06;;;-145.55;39.83
51239;BME280;38154;47.548;18.828;2024-03-23T13:22:51;73042.00;;;-145.55;39.61
51239;BME280;38154;47.548;18.828;2024-03-23T13:25:17;73042.00;;;-145.55;39.73
51239;BME280;38154;47.548;18.828;2024-03-23T13:27:44;73030.06;;;-145.55;39.69
51239;BME280;38154;47.548;18.828;2024-03-23T13:30:10;73051.97;;;-145.55;39.63
51239;BME280;38154;47.548;18.828;2024-03-23T13:32:35;73059.91;;;-145.55;39.58
51239;BME280;38154;47.548;18.828;2024-03-23T13:35:01;73063.88;;;-145.55;39.53
51239;BME280;38154;47.548;18.828;2024-03-23T13:37:27;73067.88;;;-145.55;39.71